Time;durP1;ratioP1;P1;durP2;ratioP2;P2;SDS_P1;SDS_P2;PMS_P1;PMS_P2;Temp;Humidity;BMP_temperature;BMP_pressure;BME280_temperature;BME280_humidity;BME280_pressure;Samples;Min_cycle;Max_cycle;Signal;HPM_P1;HPM_P2
2023/02/24 00:01:48;;;;;;;11.63;3.50;;;;;;;-143.48;91.01;118439.88;5113980;28;20383;-70
2023/02/24 00:04:14;;;;;;;15.23;3.58;;;;;;;-143.48;90.76;118439.88;5114069;28;20407;-71
2023/02/24 00:06:42;;;;;;;16.90;3.90;;;;;;;-143.48;91.46;118439.88;5112416;28;20044;-70
2023/02/24 00:09:22;;;;;;;17.02;3.20;;;;;;;-143.48;90.82;118439.88;5112547;28;20467;-70
2023/02/24 00:11:58;;;;;;;14.02;3.55;;;;;;;-143.48;91.54;118439.88;5095578;28;20024;-70
2023/02/24 00:14:26;;;;;;;14.75;2.97;;;;;;;-143.48;90.04;118439.88;5095715;28;20039;-70
2023/02/24 00:16:52;;;;;;;16.67;3.45;;;;;;;-143.48;90.50;118439.88;5095695;28;20027;-71
2023/02/24 00:19:20;;;;;;;9.63;3.00;;;;;;;-143.48;90.84;118439.88;5113840;28;20156;-71
2023/02/24 00:21:46;;;;;;;19.67;4.15;;;;;;;-143.48;90.87;118439.88;5112498;28;20023;-70
2023/02/24 00:24:12;;;;;;;14.65;3.33;;;;;;;-143.48;90.32;118439.88;5113965;28;20020;-71
2023/02/24 00:26:39;;;;;;;9.43;2.88;;;;;;;-143.48;89.04;118439.88;5113836;28;20457;-70
2023/02/24 00:29:08;;;;;;;17.70;3.58;;;;;;;-143.48;89.29;118439.88;5113735;28;20072;-70
2023/02/24 00:31:33;;;;;;;17.63;3.30;;;;;;;-143.48;88.38;118439.88;5113915;28;20027;-70
2023/02/24 00:34:00;;;;;;;16.45;4.40;;;;;;;-143.48;89.18;118439.88;5113819;28;20497;-70
2023/02/24 00:36:28;;;;;;;17.63;3.22;;;;;;;-143.48;88.68;118439.88;5113992;28;20536;-70
2023/02/24 00:38:59;;;;;;;12.70;3.20;;;;;;;-143.48;89.91;118439.88;5114085;28;20406;-70
2023/02/24 00:41:30;;;;;;;18.05;3.35;;;;;;;-143.48;89.08;118439.88;5114083;28;20059;-70
2023/02/24 00:44:08;;;;;;;11.40;3.00;;;;;;;-143.48;87.36;118439.88;5114186;28;20512;-70
2023/02/24 00:46:39;;;;;;;13.07;3.20;;;;;;;-143.48;87.30;118439.88;5114740;28;20533;-70
2023/02/24 00:49:09;;;;;;;14.23;2.83;;;;;;;-143.48;87.08;118439.88;5100634;28;20045;-70
2023/02/24 00:51:47;;;;;;;13.63;3.33;;;;;;;-143.48;89.67;118439.88;5104558;28;20024;-71
2023/02/24 00:54:13;;;;;;;16.65;3.30;;;;;;;-143.48;89.54;118439.88;5105847;28;20396;-71
2023/02/24 00:56:44;;;;;;;15.50;3.08;;;;;;;-143.48;89.50;118439.88;5123305;28;20022;-70
2023/02/24 00:59:10;;;;;;;11.88;2.85;;;;;;;-143.48;88.97;118439.88;5123310;28;20026;-71
2023/02/24 01:01:36;;;;;;;19.65;3.55;;;;;;;-143.48;88.95;118439.88;5121127;28;20371;-70
2023/02/24 01:04:09;;;;;;;14.77;3.08;;;;;;;-143.48;88.39;118439.88;5118701;28;20026;-71
2023/02/24 01:06:43;;;;;;;13.70;3.22;;;;;;;-143.48;88.61;118439.88;5117514;28;20047;-70
2023/02/24 01:09:11;;;;;;;20.15;3.25;;;;;;;-143.48;86.45;118439.88;5116801;28;20031;-70
2023/02/24 01:14:24;;;;;;;19.77;4.10;;;;;;;-143.48;86.32;118439.88;5117671;28;20035;-70
2023/02/24 01:16:50;;;;;;;10.25;3.30;;;;;;;-143.48;85.94;118439.88;5117585;28;20093;-70
2023/02/24 01:19:17;;;;;;;11.00;3.40;;;;;;;-143.48;87.19;118439.88;5115898;28;20024;-70
2023/02/24 01:21:42;;;;;;;14.45;3.90;;;;;;;-143.48;88.61;118439.88;5099146;28;20028;-70
2023/02/24 01:24:09;;;;;;;10.43;3.22;;;;;;;-143.48;88.92;118439.88;5117056;28;20027;-70
2023/02/24 01:26:35;;;;;;;9.80;3.53;;;;;;;-143.48;89.47;118439.88;5117284;28;20019;-70
2023/02/24 01:29:03;;;;;;;12.38;3.25;;;;;;;-143.48;87.87;118439.88;5117054;28;20035;-70
2023/02/24 01:31:29;;;;;;;16.20;3.72;;;;;;;-143.48;88.71;118439.88;5115802;28;20016;-70
2023/02/24 01:33:54;;;;;;;13.85;3.50;;;;;;;-143.48;87.39;118439.88;5116692;28;20031;-69
2023/02/24 01:36:24;;;;;;;18.50;3.75;;;;;;;-143.48;86.58;118439.88;5098651;28;20026;-69
2023/02/24 01:38:50;;;;;;;13.35;3.33;;;;;;;-143.48;86.22;118439.88;5115440;28;20188;-69
2023/02/24 01:41:20;;;;;;;18.10;3.58;;;;;;;-143.48;87.70;118439.88;5116738;28;20062;-70
2023/02/24 01:44:01;;;;;;;17.27;3.58;;;;;;;-143.48;86.89;118439.88;5098106;28;20115;-71
2023/02/24 01:46:40;;;;;;;18.08;3.38;;;;;;;-143.48;86.74;118439.88;5116363;28;20035;-70
2023/02/24 01:49:14;;;;;;;11.07;3.50;;;;;;;-143.48;86.43;118439.88;5116356;28;20023;-69
2023/02/24 01:51:44;;;;;;;9.88;3.88;;;;;;;-143.48;85.40;118439.88;5116357;28;20458;-69
2023/02/24 01:54:13;;;;;;;13.30;3.67;;;;;;;-143.48;85.97;118439.88;5116831;28;20366;-70
2023/02/24 01:56:40;;;;;;;16.10;3.13;;;;;;;-143.48;86.31;118439.88;5097953;28;20106;-69
2023/02/24 01:59:08;;;;;;;17.73;4.10;;;;;;;-143.48;87.02;118439.88;5096530;28;20115;-70
2023/02/24 02:01:39;;;;;;;16.95;3.78;;;;;;;-143.48;86.59;118439.88;5097939;28;20491;-70
2023/02/24 02:04:22;;;;;;;14.60;3.45;;;;;;;-143.48;85.37;118439.88;5116067;28;20077;-70
2023/02/24 02:06:47;;;;;;;18.90;3.83;;;;;;;-143.48;85.97;118439.88;5115806;28;20086;-70
2023/02/24 02:09:14;;;;;;;17.63;3.78;;;;;;;-143.48;86.75;118439.88;5115837;28;20060;-70
2023/02/24 02:11:47;;;;;;;10.48;3.15;;;;;;;-143.48;85.96;118439.88;5116018;28;20077;-70
2023/02/24 02:14:18;;;;;;;10.15;3.38;;;;;;;-143.48;85.95;118439.88;5115868;28;20046;-70
2023/02/24 02:16:56;;;;;;;13.68;2.80;;;;;;;-143.48;86.43;118439.88;5097559;28;20050;-70
2023/02/24 02:19:40;;;;;;;14.48;3.05;;;;;;;-143.48;86.15;118439.88;5097260;28;20076;-71
2023/02/24 02:22:30;;;;;;;14.45;2.72;;;;;;;-143.48;85.67;118439.88;5096719;28;20038;-71
2023/02/24 02:25:24;;;;;;;9.38;2.70;;;;;;;-143.48;84.98;118439.88;5097195;28;20027;-70
2023/02/24 02:28:31;;;;;;;13.48;3.13;;;;;;;-143.48;85.48;118439.88;5107499;28;20164;-70
2023/02/24 02:31:21;;;;;;;9.02;2.83;;;;;;;-143.48;84.39;118439.88;5061588;28;20047;-70
2023/02/24 02:34:15;;;;;;;9.35;2.53;;;;;;;-143.48;84.07;118439.88;5115471;28;20102;-70
2023/02/24 02:36:54;;;;;;;10.27;2.75;;;;;;;-143.48;85.47;118439.88;5097107;28;20106;-70
2023/02/24 02:39:28;;;;;;;13.60;2.65;;;;;;;-143.48;86.31;118439.88;5115271;28;20047;-70
2023/02/24 02:42:20;;;;;;;13.60;2.42;;;;;;;-143.48;86.07;118439.88;5097022;28;20023;-70
2023/02/24 02:44:54;;;;;;;15.68;3.05;;;;;;;-143.48;86.04;118439.88;5097032;28;20027;-69
2023/02/24 02:47:33;;;;;;;14.27;2.78;;;;;;;-143.48;86.78;118439.88;5115170;28;20023;-70
2023/02/24 02:50:23;;;;;;;15.07;2.60;;;;;;;-143.48;84.96;118439.88;5096837;28;20042;-69
2023/02/24 02:52:56;;;;;;;10.93;1.95;;;;;;;-143.48;83.75;118439.88;5115144;28;20045;-70
2023/02/24 02:55:29;;;;;;;12.57;2.38;;;;;;;-143.48;85.07;118439.88;5096691;28;20133;-70
2023/02/24 02:57:57;;;;;;;10.85;2.15;;;;;;;-143.48;85.29;118439.88;5096686;28;20045;-70
2023/02/24 03:00:28;;;;;;;8.68;1.90;;;;;;;-143.48;84.52;118439.88;5115012;28;20104;-70
2023/02/24 03:03:15;;;;;;;11.70;2.33;;;;;;;-143.48;84.94;118439.88;5096593;28;20390;-70
2023/02/24 03:05:47;;;;;;;12.00;2.00;;;;;;;-143.48;83.56;118439.88;5114794;28;20099;-70
2023/02/24 03:08:21;;;;;;;13.23;2.55;;;;;;;-143.48;84.24;118439.88;5113364;28;20119;-70
2023/02/24 03:10:52;;;;;;;8.20;2.03;;;;;;;-143.48;83.74;118439.88;5096048;28;20054;-71
2023/02/24 03:13:22;;;;;;;13.52;1.88;;;;;;;-143.48;83.22;118439.88;5096377;28;20015;-70
2023/02/24 03:15:51;;;;;;;8.75;1.65;;;;;;;-143.48;83.10;118439.88;5113432;28;20034;-70
2023/02/24 03:18:29;;;;;;;11.02;1.98;;;;;;;-143.48;82.96;118439.88;5114604;28;20016;-70
2023/02/24 03:21:08;;;;;;;8.55;2.00;;;;;;;-143.48;83.64;118439.88;5114607;28;20030;-70
2023/02/24 03:23:44;;;;;;;9.75;1.90;;;;;;;-143.48;83.26;118439.88;5114588;28;20015;-71
2023/02/24 03:26:17;;;;;;;7.82;1.60;;;;;;;-143.48;83.07;118439.88;5096235;28;20493;-70
2023/02/24 03:28:52;;;;;;;8.82;2.17;;;;;;;-143.48;83.56;118439.88;5096059;28;20390;-70
2023/02/24 03:31:26;;;;;;;9.40;2.05;;;;;;;-143.48;80.87;118439.88;5114415;28;20051;-70
2023/02/24 03:34:04;;;;;;;12.02;1.60;;;;;;;-143.48;79.98;118439.88;5114438;28;20023;-70
2023/02/24 03:36:30;;;;;;;8.35;1.77;;;;;;;-143.48;79.61;118439.88;5114378;28;20027;-70
2023/02/24 03:38:57;;;;;;;5.68;1.67;;;;;;;-143.48;81.44;118439.88;5114224;28;20023;-70
2023/02/24 03:41:30;;;;;;;11.50;1.40;;;;;;;-143.48;82.02;118439.88;5114184;28;20031;-70
2023/02/24 03:43:57;;;;;;;4.40;1.40;;;;;;;-143.48;80.21;118439.88;5114255;28;20102;-71
2023/02/24 03:46:23;;;;;;;8.43;1.60;;;;;;;-143.48;79.88;118439.88;5114085;28;20111;-70
2023/02/24 03:49:01;;;;;;;7.32;1.70;;;;;;;-143.48;79.20;118439.88;5112725;28;20106;-70
2023/02/24 03:51:30;;;;;;;8.75;1.88;;;;;;;-143.48;78.98;118439.88;5113913;28;20047;-71
2023/02/24 03:54:31;;;;;;;14.45;1.90;;;;;;;-143.48;79.66;118439.88;5112675;28;20023;-70
2023/02/24 03:57:04;;;;;;;12.95;1.80;;;;;;;-143.48;80.26;118439.88;5113919;28;20575;-70
2023/02/24 03:59:48;;;;;;;8.88;1.92;;;;;;;-143.48;78.96;118439.88;5095711;28;20051;-70
2023/02/24 04:02:27;;;;;;;12.00;1.50;;;;;;;-143.48;79.06;118439.88;5095584;28;20027;-70
2023/02/24 04:05:01;;;;;;;10.75;1.55;;;;;;;-143.48;79.65;118439.88;5113643;28;20024;-70
2023/02/24 04:07:53;;;;;;;7.32;1.52;;;;;;;-143.48;77.46;118439.88;5112380;28;20062;-71
2023/02/24 04:10:51;;;;;;;5.60;1.58;;;;;;;-143.48;76.08;118439.88;5091475;28;20047;-70
2023/02/24 04:13:36;;;;;;;9.23;1.63;;;;;;;-143.48;76.44;118439.88;5113766;28;20486;-70
2023/02/24 04:16:15;;;;;;;9.48;1.95;;;;;;;-143.48;76.58;118439.88;5113857;28;20031;-70
2023/02/24 04:18:47;;;;;;;6.65;1.60;;;;;;;-143.48;77.50;118439.88;5112249;28;20064;-70
2023/02/24 04:21:15;;;;;;;8.70;1.90;;;;;;;-143.48;77.67;118439.88;5113639;28;20031;-69
2023/02/24 04:23:43;;;;;;;15.32;1.70;;;;;;;-143.48;77.50;118439.88;5112848;28;20054;-70
2023/02/24 04:26:11;;;;;;;10.77;1.65;;;;;;;-143.48;77.93;118439.88;5113498;28;20027;-69
2023/02/24 04:28:39;;;;;;;6.88;1.58;;;;;;;-143.48;79.58;118439.88;5113513;28;20031;-70
2023/02/24 04:31:09;;;;;;;9.10;1.75;;;;;;;-143.48;80.13;118439.88;5113455;28;20019;-70
2023/02/24 04:33:35;;;;;;;14.30;1.90;;;;;;;-143.48;78.97;118439.88;5113445;28;20434;-70
2023/02/24 04:36:00;;;;;;;7.47;1.80;;;;;;;-143.48;78.81;118439.88;5113500;28;20054;-70
2023/02/24 04:38:26;;;;;;;7.95;2.20;;;;;;;-143.48;78.59;118439.88;5113382;28;20023;-70
2023/02/24 04:40:51;;;;;;;9.48;1.77;;;;;;;-143.48;79.38;118439.88;5113606;28;20102;-70
2023/02/24 04:43:17;;;;;;;11.90;1.90;;;;;;;-143.48;79.45;118439.88;5095191;28;20032;-70
2023/02/24 04:45:43;;;;;;;8.60;2.03;;;;;;;-143.48;78.75;118439.88;5113418;28;20098;-70
2023/02/24 04:48:11;;;;;;;7.32;1.70;;;;;;;-143.48;78.59;118439.88;5095039;28;20161;-71
2023/02/24 04:50:39;;;;;;;9.40;1.80;;;;;;;-143.48;79.45;118439.88;5113372;28;20019;-70
2023/02/24 04:53:08;;;;;;;6.43;1.40;;;;;;;-143.48;79.50;118439.88;5113268;28;20023;-70
2023/02/24 04:55:40;;;;;;;7.13;1.70;;;;;;;-143.48;80.20;118439.88;5113647;28;20587;-70
2023/02/24 04:58:18;;;;;;;10.57;1.67;;;;;;;-143.48;79.96;118439.88;5095072;28;20036;-70
2023/02/24 05:00:46;;;;;;;12.45;1.85;;;;;;;-143.48;79.41;118439.88;5113317;28;20027;-70
2023/02/24 05:03:12;;;;;;;7.65;1.80;;;;;;;-143.48;78.45;118439.88;5095069;28;20026;-70
2023/02/24 05:05:37;;;;;;;8.20;1.67;;;;;;;-143.48;77.85;118439.88;5094904;28;20406;-70
2023/02/24 05:08:06;;;;;;;5.05;1.50;;;;;;;-143.48;78.61;118439.88;5113158;28;20019;-70
2023/02/24 05:10:43;;;;;;;7.63;1.60;;;;;;;-143.48;78.72;118439.88;5113192;28;20027;-70
2023/02/24 05:13:13;;;;;;;7.90;1.90;;;;;;;-143.48;78.18;118439.88;5113093;28;20028;-70
2023/02/24 05:15:41;;;;;;;6.97;1.30;;;;;;;-143.48;78.72;118439.88;5113241;28;20028;-70
2023/02/24 05:18:12;;;;;;;10.75;1.80;;;;;;;-143.48;78.96;118439.88;5113138;28;20023;-70
2023/02/24 05:23:35;;;;;;;9.48;1.58;;;;;;;-143.48;78.90;118439.88;5113404;28;20034;-70
2023/02/24 05:26:07;;;;;;;10.57;1.33;;;;;;;-143.48;78.60;118439.88;5094772;28;20119;-70
2023/02/24 05:28:33;;;;;;;8.68;1.50;;;;;;;-143.48;78.58;118439.88;5113052;28;20081;-70
2023/02/24 05:31:07;;;;;;;10.32;2.10;;;;;;;-143.48;79.53;118439.88;5112960;28;20024;-71
2023/02/24 05:33:33;;;;;;;7.35;1.63;;;;;;;-143.48;78.38;118439.88;5113877;28;20382;-70
2023/02/24 05:36:02;;;;;;;8.75;1.55;;;;;;;-143.48;79.51;118439.88;5116570;28;20020;-70
2023/02/24 05:38:28;;;;;;;10.43;1.73;;;;;;;-143.48;78.61;118439.88;5098411;28;20051;-70
2023/02/24 05:41:03;;;;;;;8.07;1.63;;;;;;;-143.48;79.23;118439.88;5098301;28;20501;-71
2023/02/24 05:43:30;;;;;;;14.93;1.85;;;;;;;-143.48;79.13;118439.88;5116463;28;20047;-70
2023/02/24 05:45:59;;;;;;;11.43;1.95;;;;;;;-143.48;78.28;118439.88;5098217;28;20023;-70
2023/02/24 05:48:27;;;;;;;5.15;1.50;;;;;;;-143.48;78.06;118439.88;5116286;28;20015;-70
2023/02/24 05:50:53;;;;;;;9.43;1.60;;;;;;;-143.48;78.19;118439.88;5098138;28;20015;-70
2023/02/24 05:53:19;;;;;;;8.68;1.60;;;;;;;-143.48;78.19;118439.88;5098086;28;20028;-70
2023/02/24 05:55:45;;;;;;;11.10;1.67;;;;;;;-143.48;79.19;118439.88;5117427;28;20032;-70
2023/02/24 05:58:11;;;;;;;4.47;1.48;;;;;;;-143.48;79.14;118439.88;5098713;28;20023;-71
2023/02/24 06:00:38;;;;;;;10.10;1.95;;;;;;;-143.48;79.31;118439.88;5116641;28;20039;-70
2023/02/24 06:03:15;;;;;;;6.88;1.90;;;;;;;-143.48;78.77;118439.88;5097955;28;20152;-70
2023/02/24 06:05:42;;;;;;;13.90;2.03;;;;;;;-143.48;79.40;118439.88;5111340;28;20142;-70
2023/02/24 06:08:10;;;;;;;9.25;2.10;;;;;;;-143.48;78.90;118439.88;5094245;28;20024;-70
2023/02/24 06:10:39;;;;;;;8.35;1.75;;;;;;;-143.48;79.44;118439.88;5095566;28;20441;-70
2023/02/24 06:13:05;;;;;;;8.82;2.08;;;;;;;-143.48;79.44;118439.88;5094335;28;20041;-70
2023/02/24 06:15:32;;;;;;;12.77;2.25;;;;;;;-143.48;79.59;118439.88;5095547;28;20028;-70
2023/02/24 06:17:59;;;;;;;11.77;2.33;;;;;;;-143.48;79.93;118439.88;5095544;28;20026;-70
2023/02/24 06:20:27;;;;;;;5.70;1.95;;;;;;;-143.48;80.56;118439.88;5095378;28;20020;-71
2023/02/24 06:22:56;;;;;;;7.75;1.90;;;;;;;-143.48;79.06;118439.88;5095661;28;20107;-70
2023/02/24 06:25:23;;;;;;;6.47;2.13;;;;;;;-143.48;79.27;118439.88;5094210;28;20024;-70
2023/02/24 06:27:54;;;;;;;7.57;1.98;;;;;;;-143.48;79.59;118439.88;5094075;28;20502;-70
2023/02/24 06:30:21;;;;;;;14.18;2.53;;;;;;;-143.48;79.85;118439.88;5095646;28;20016;-69
2023/02/24 06:32:47;;;;;;;8.90;2.25;;;;;;;-143.48;79.06;118439.88;5095455;28;20036;-69
2023/02/24 06:35:13;;;;;;;10.25;2.42;;;;;;;-143.48;79.14;118439.88;5095443;28;20039;-69
2023/02/24 06:37:38;;;;;;;14.05;2.17;;;;;;;-143.48;79.00;118439.88;5095097;28;20016;-69
2023/02/24 06:40:14;;;;;;;10.30;2.15;;;;;;;-143.48;79.23;118439.88;5095055;28;20536;-70
2023/02/24 06:43:00;;;;;;;12.13;2.97;;;;;;;-143.48;78.58;118439.88;5094893;28;20081;-70
2023/02/24 06:45:25;;;;;;;9.98;2.63;;;;;;;-143.48;78.85;118439.88;5092409;28;20168;-70
2023/02/24 06:47:51;;;;;;;13.93;3.42;;;;;;;-143.48;80.08;118439.88;5094727;28;20032;-71
2023/02/24 06:50:22;;;;;;;12.52;3.63;;;;;;;-143.48;79.39;118439.88;5093515;28;20024;-70
2023/02/24 06:52:48;;;;;;;13.98;3.15;;;;;;;-143.48;79.64;118439.88;5094926;28;20051;-70
2023/02/24 06:55:27;;;;;;;8.75;2.30;;;;;;;-143.48;79.86;118439.88;5094943;28;20102;-69
2023/02/24 06:58:03;;;;;;;9.10;2.25;;;;;;;-143.48;79.38;118439.88;5094624;28;20031;-69
2023/02/24 07:00:40;;;;;;;18.67;3.67;;;;;;;-143.48;79.96;118439.88;5093328;28;20034;-69
2023/02/24 07:03:13;;;;;;;9.15;2.50;;;;;;;-143.48;79.46;118439.88;5094545;28;20107;-69
2023/02/24 07:05:49;;;;;;;11.13;2.78;;;;;;;-143.48;78.90;118439.88;5092275;28;20052;-69
2023/02/24 07:08:26;;;;;;;8.63;2.20;;;;;;;-143.48;80.01;118439.88;5092929;28;20047;-69
2023/02/24 07:10:56;;;;;;;12.75;2.78;;;;;;;-143.48;79.67;118439.88;5093252;28;20053;-69
2023/02/24 07:13:28;;;;;;;12.55;2.95;;;;;;;-143.48;79.74;118439.88;5094022;28;20035;-71
2023/02/24 07:15:54;;;;;;;11.73;2.90;;;;;;;-143.48;80.61;118439.88;5092123;28;20030;-70
2023/02/24 07:18:21;;;;;;;8.55;3.10;;;;;;;-143.48;81.56;118439.88;5091859;28;20387;-70
2023/02/24 07:20:46;;;;;;;8.18;2.38;;;;;;;-143.48;80.89;118439.88;5092463;28;20024;-70
2023/02/24 07:23:13;;;;;;;13.05;2.40;;;;;;;-143.48;80.51;118439.88;5092348;28;20157;-69
2023/02/24 07:25:40;;;;;;;9.18;2.60;;;;;;;-143.48;81.14;118439.88;5092163;28;20016;-70
2023/02/24 07:28:06;;;;;;;12.80;2.50;;;;;;;-143.48;82.04;118439.88;5093227;28;20039;-69
2023/02/24 07:30:32;;;;;;;10.00;2.30;;;;;;;-143.48;81.72;118439.88;5092715;28;20047;-69
2023/02/24 07:32:59;;;;;;;13.15;2.28;;;;;;;-143.48;82.04;118439.88;5092611;28;20458;-69
2023/02/24 07:35:25;;;;;;;12.15;2.58;;;;;;;-143.48;81.46;118439.88;5092628;28;20024;-70
2023/02/24 07:37:50;;;;;;;10.05;2.53;;;;;;;-143.48;81.15;118439.88;5093815;28;20026;-70
2023/02/24 07:40:17;;;;;;;15.23;2.75;;;;;;;-143.48;81.68;118439.88;5092520;28;20027;-69
2023/02/24 07:42:43;;;;;;;12.60;2.30;;;;;;;-143.48;81.83;118439.88;5093742;28;20108;-70
2023/02/24 07:45:09;;;;;;;16.23;2.92;;;;;;;-143.48;82.87;118439.88;5093655;28;20023;-69
2023/02/24 07:47:35;;;;;;;13.88;2.97;;;;;;;-143.48;81.53;118439.88;5093456;28;20028;-69
2023/02/24 07:50:01;;;;;;;10.13;2.30;;;;;;;-143.48;81.90;118439.88;5093594;28;20038;-69
2023/02/24 07:52:31;;;;;;;12.05;2.45;;;;;;;-143.48;82.94;118439.88;5093649;28;20050;-68
2023/02/24 07:54:57;;;;;;;9.40;2.42;;;;;;;-143.48;83.33;118439.88;5093577;28;20027;-69
2023/02/24 07:57:24;;;;;;;13.25;2.58;;;;;;;-143.48;83.25;118439.88;5093283;28;20035;-69
2023/02/24 07:59:49;;;;;;;11.70;2.50;;;;;;;-143.48;83.35;118439.88;5091973;28;20028;-68
2023/02/24 08:02:15;;;;;;;17.70;2.55;;;;;;;-143.48;83.34;118439.88;5093524;28;20023;-69
2023/02/24 08:04:47;;;;;;;10.77;2.38;;;;;;;-143.48;83.22;118439.88;5094194;28;20019;-70
2023/02/24 08:07:13;;;;;;;11.60;2.60;;;;;;;-143.48;82.93;118439.88;5113888;28;20040;-69
2023/02/24 08:12:16;;;;;;;11.40;3.33;;;;;;;-143.48;84.08;118439.88;5113935;28;20088;-69
2023/02/24 08:14:49;;;;;;;12.95;2.70;;;;;;;-143.48;84.93;118439.88;5095412;28;20030;-69
2023/02/24 08:17:18;;;;;;;15.85;2.70;;;;;;;-143.48;85.12;118439.88;5095437;28;20019;-68
2023/02/24 08:19:45;;;;;;;11.82;2.50;;;;;;;-143.48;85.38;118439.88;5113588;28;20051;-68
2023/02/24 08:22:23;;;;;;;17.33;2.95;;;;;;;-143.48;85.84;118439.88;5094843;28;20077;-68
2023/02/24 08:24:52;;;;;;;11.00;2.70;;;;;;;-143.48;86.46;118439.88;5113747;28;20358;-69
2023/02/24 08:27:20;;;;;;;9.32;2.53;;;;;;;-143.48;86.87;118439.88;5113358;28;20027;-68
2023/02/24 08:29:57;;;;;;;12.60;2.60;;;;;;;-143.48;87.37;118439.88;5113020;28;20424;-69
2023/02/24 08:32:42;;;;;;;10.85;2.78;;;;;;;-143.48;87.60;118439.88;5095033;28;20028;-68
2023/02/24 08:35:15;;;;;;;16.58;2.88;;;;;;;-143.48;87.90;118439.88;5114359;28;20030;-69
2023/02/24 08:37:47;;;;;;;13.07;2.65;;;;;;;-143.48;88.22;118439.88;5113575;28;20370;-68
2023/02/24 08:42:58;;;;;;;13.13;2.92;;;;;;;-143.48;88.48;118439.88;5113686;28;20039;-68
2023/02/24 08:45:32;;;;;;;17.27;3.17;;;;;;;-143.48;88.49;118439.88;5113214;28;20031;-68
2023/02/24 08:47:59;;;;;;;11.63;2.72;;;;;;;-143.48;89.15;118439.88;5094859;28;20399;-68
2023/02/24 08:50:29;;;;;;;14.52;2.53;;;;;;;-143.48;89.77;118439.88;5095466;28;20027;-69
2023/02/24 08:52:57;;;;;;;15.77;2.60;;;;;;;-143.48;90.30;118439.88;5095094;28;20466;-69
2023/02/24 08:55:29;;;;;;;12.02;2.40;;;;;;;-143.48;89.28;118439.88;5113200;28;20074;-69
2023/02/24 08:57:58;;;;;;;20.25;3.10;;;;;;;-143.48;90.39;118439.88;5113317;28;20111;-69
2023/02/24 09:00:41;;;;;;;11.23;2.85;;;;;;;-143.48;91.09;118439.88;5113299;28;20056;-68
2023/02/24 09:03:07;;;;;;;12.73;2.90;;;;;;;-143.48;91.12;118439.88;5113359;28;20031;-68
2023/02/24 09:05:32;;;;;;;19.08;4.00;;;;;;;-143.48;91.28;118439.88;5112955;28;20093;-69
2023/02/24 09:07:57;;;;;;;20.35;3.53;;;;;;;-143.48;91.62;118439.88;5094542;28;20155;-70
2023/02/24 09:10:23;;;;;;;16.00;2.75;;;;;;;-143.48;93.00;118439.88;5099848;28;20050;-69
2023/02/24 09:12:52;;;;;;;18.08;2.72;;;;;;;-143.48;92.63;118439.88;5099101;28;20027;-68
2023/02/24 09:15:19;;;;;;;10.48;2.45;;;;;;;-143.48;93.10;118439.88;5117384;28;20015;-68
2023/02/24 09:25:48;;;;;;;24.20;2.92;;;;;;;-143.48;94.89;118439.88;5117455;28;20031;-69
2023/02/24 09:28:24;;;;;;;15.52;3.33;;;;;;;-143.48;95.99;118439.88;5116755;28;20436;-68
2023/02/24 09:30:57;;;;;;;20.90;3.33;;;;;;;-143.48;96.57;118439.88;5116452;28;20047;-69
2023/02/24 09:33:25;;;;;;;14.40;2.95;;;;;;;-143.48;97.03;118439.88;5115979;28;20034;-68
2023/02/24 09:36:09;;;;;;;14.13;2.55;;;;;;;-143.48;97.61;118439.88;5097849;28;20035;-69
2023/02/24 09:42:27;;;;;;;12.85;2.83;;;;;;;-143.48;98.13;118439.88;5116284;28;20028;-68
2023/02/24 09:44:51;;;;;;;14.80;2.78;;;;;;;-143.48;98.91;118439.88;5032965;28;20034;-69
2023/02/24 09:50:29;;;;;;;14.35;3.40;;;;;;;-143.48;99.35;118439.88;5102826;28;20042;-69
2023/02/24 09:53:12;;;;;;;13.60;3.00;;;;;;;-143.48;99.67;118439.88;5116639;28;20051;-69
2023/02/24 09:55:58;;;;;;;17.20;4.20;;;;;;;-143.48;100.00;118439.88;5116515;28;20024;-68
2023/02/24 09:58:47;;;;;;;16.05;3.13;;;;;;;-143.48;99.70;118439.88;5116134;28;20054;-68
2023/02/24 10:01:29;;;;;;;12.40;2.80;;;;;;;-143.48;99.72;118439.88;5114728;28;20080;-70
2023/02/24 10:04:26;;;;;;;11.90;3.08;;;;;;;-143.48;99.89;118439.88;5097817;28;20486;-69
2023/02/24 10:07:27;;;;;;;15.70;3.92;;;;;;;-143.48;100.00;118439.88;5115647;28;20339;-69
2023/02/24 10:10:18;;;;;;;11.35;2.58;;;;;;;-143.48;100.00;118439.88;5113844;28;20050;-73
2023/02/24 10:12:51;;;;;;;14.45;3.08;;;;;;;-143.48;100.00;118439.88;5113725;28;20033;-69
2023/02/24 10:18:26;;;;;;;11.73;2.92;;;;;;;-143.48;100.00;118439.88;5114859;28;20080;-69
2023/02/24 10:20:59;;;;;;;10.80;3.15;;;;;;;-143.48;100.00;118439.88;5113629;28;20367;-70
2023/02/24 10:23:43;;;;;;;10.70;3.20;;;;;;;-143.48;100.00;118439.88;5096308;28;20106;-69
2023/02/24 10:26:31;;;;;;;10.30;3.08;;;;;;;-143.48;100.00;118439.88;5115623;28;20028;-69
2023/02/24 10:29:21;;;;;;;11.98;3.60;;;;;;;-143.48;100.00;118439.88;5115165;28;20023;-70
2023/02/24 10:32:00;;;;;;;13.35;3.38;;;;;;;-143.48;100.00;118439.88;5115308;28;20110;-70
2023/02/24 10:34:30;;;;;;;13.32;3.80;;;;;;;-143.48;100.00;118439.88;5114631;28;20499;-69
2023/02/24 10:37:11;;;;;;;9.82;3.80;;;;;;;-143.48;100.00;118439.88;5113722;28;20389;-69
2023/02/24 10:39:41;;;;;;;7.25;3.65;;;;;;;-143.48;100.00;118439.88;5112628;28;20033;-68
2023/02/24 10:42:15;;;;;;;9.73;3.70;;;;;;;-143.48;100.00;118439.88;5096103;28;20028;-68
2023/02/24 10:44:52;;;;;;;12.05;4.65;;;;;;;-143.48;100.00;118439.88;5115048;28;20027;-68
2023/02/24 10:47:29;;;;;;;9.80;3.97;;;;;;;-143.48;100.00;118439.88;5113813;28;20100;-69
2023/02/24 10:49:56;;;;;;;10.00;4.28;;;;;;;-143.48;100.00;118439.88;5115211;28;20019;-69
2023/02/24 10:55:27;;;;;;;10.25;4.80;;;;;;;-143.48;100.00;118439.88;5115872;28;20115;-70
2023/02/24 10:58:05;;;;;;;11.77;5.07;;;;;;;-143.48;100.00;118439.88;5114317;28;20372;-70
2023/02/24 11:03:45;;;;;;;11.27;5.50;;;;;;;-143.48;100.00;118439.88;5115948;28;20046;-70
2023/02/24 11:17:30;;;;;;;15.02;6.20;;;;;;;-143.48;100.00;118439.88;5114868;28;20042;-69
2023/02/24 11:20:09;;;;;;;17.35;5.80;;;;;;;-143.48;100.00;118439.88;5114924;28;20387;-69
2023/02/24 11:22:40;;;;;;;10.90;6.05;;;;;;;-143.48;100.00;118439.88;5096456;28;20529;-69
2023/02/24 11:25:26;;;;;;;14.07;6.25;;;;;;;-143.48;100.00;118439.88;5112819;28;20015;-70
2023/02/24 11:27:55;;;;;;;11.15;5.80;;;;;;;-143.48;100.00;118439.88;5111176;28;20568;-69
2023/02/24 11:30:42;;;;;;;15.07;6.43;;;;;;;-143.48;100.00;118439.88;5093055;28;20050;-70
2023/02/24 11:33:25;;;;;;;10.60;5.65;;;;;;;-143.48;100.00;118439.88;5112092;28;20495;-72
2023/02/24 11:36:08;;;;;;;11.50;6.35;;;;;;;-143.48;100.00;118439.88;5111340;28;20441;-71
2023/02/24 11:38:55;;;;;;;10.75;5.80;;;;;;;-143.48;100.00;118439.88;5112429;28;20091;-70
2023/02/24 11:41:24;;;;;;;15.40;5.47;;;;;;;-143.48;100.00;118439.88;5113621;28;20031;-70
2023/02/24 11:44:36;;;;;;;12.52;6.50;;;;;;;-143.48;100.00;118439.88;5114007;28;20023;-69
2023/02/24 11:47:06;;;;;;;13.88;5.40;;;;;;;-143.48;98.66;118439.88;5104197;28;20035;-69
2023/02/24 11:49:43;;;;;;;15.82;5.47;;;;;;;-143.48;98.03;118439.88;5114451;28;20031;-70
2023/02/24 11:52:17;;;;;;;17.50;5.50;;;;;;;-143.48;96.73;118439.88;5114449;28;20033;-69
2023/02/24 11:54:49;;;;;;;14.82;5.20;;;;;;;-143.48;96.00;118439.88;5114341;28;20076;-69
2023/02/24 11:57:21;;;;;;;16.05;4.68;;;;;;;-143.48;85.32;118439.88;5096072;28;20019;-69
2023/02/24 12:00:11;;;;;;;18.73;4.15;;;;;;;-143.48;72.96;118439.88;5114271;28;20020;-70
2023/02/24 12:02:46;;;;;;;22.55;3.75;;;;;;;-143.48;77.48;118439.88;5114349;28;20023;-69
2023/02/24 12:05:20;;;;;;;25.77;4.18;;;;;;;-143.48;88.58;118439.88;5114098;28;20556;-70
2023/02/24 12:07:51;;;;;;;20.73;4.18;;;;;;;-143.48;92.21;118439.88;5114252;28;20028;-70
2023/02/24 12:10:27;;;;;;;19.00;4.20;;;;;;;-143.48;94.59;118439.88;5095777;28;20027;-71
2023/02/24 12:13:18;;;;;;;17.85;3.85;;;;;;;-143.48;87.79;118439.88;5112851;28;20027;-70